Time;durP1;ratioP1;P1;durP2;ratioP2;P2;SDS_P1;SDS_P2;PMS_P1;PMS_P2;Temp;Humidity;BMP_temperature;BMP_pressure;BME280_temperature;BME280_humidity;BME280_pressure;Samples;Min_cycle;Max_cycle;Signal;HPM_P1;HPM_P2
2022/01/05 00:01:15;;;;;;;27.80;15.68;;;;;;;8.59;nan;99578.63;5031522;28;20596;-75
2022/01/05 00:03:41;;;;;;;26.65;15.43;;;;;;;8.62;nan;99584.25;5031656;28;20025;-75
2022/01/05 00:06:06;;;;;;;28.35;14.70;;;;;;;8.65;nan;99583.78;5031794;28;20045;-75
2022/01/05 00:08:32;;;;;;;30.27;15.55;;;;;;;8.57;nan;99571.03;5029414;28;20026;-75
2022/01/05 00:10:57;;;;;;;25.17;14.98;;;;;;;8.60;nan;99570.56;5030223;28;20060;-74
2022/01/05 00:13:22;;;;;;;24.83;14.63;;;;;;;8.61;nan;99569.50;5031239;28;20088;-74
2022/01/05 00:15:48;;;;;;;28.35;14.80;;;;;;;8.59;nan;99566.31;5031829;28;20030;-75
2022/01/05 00:18:13;;;;;;;27.17;14.15;;;;;;;8.65;nan;99575.09;5030053;28;20083;-74
2022/01/05 00:20:39;;;;;;;26.75;13.93;;;;;;;8.64;nan;99565.63;5031650;28;20053;-74
2022/01/05 00:23:04;;;;;;;21.58;13.35;;;;;;;8.69;nan;99573.59;5031482;28;20048;-74
2022/01/05 00:25:30;;;;;;;24.05;14.23;;;;;;;8.73;nan;99593.88;5031968;28;20033;-75
2022/01/05 00:27:55;;;;;;;22.40;13.15;;;;;;;8.73;nan;99587.84;5030200;28;20056;-74
2022/01/05 00:30:21;;;;;;;23.67;13.50;;;;;;;8.79;nan;99594.00;5027398;28;20084;-74
2022/01/05 00:32:46;;;;;;;25.75;13.20;;;;;;;8.72;nan;99579.19;5028618;28;20033;-73
2022/01/05 00:35:12;;;;;;;25.70;13.60;;;;;;;8.77;nan;99575.88;5030171;28;20494;-72
2022/01/05 00:37:37;;;;;;;22.75;13.20;;;;;;;8.79;nan;99583.50;5028816;28;20033;-72
2022/01/05 00:40:04;;;;;;;24.15;13.70;;;;;;;8.79;nan;99578.25;5032998;28;20072;-72
2022/01/05 00:42:30;;;;;;;26.25;13.35;;;;;;;8.83;nan;99592.50;5031264;28;20463;-73
2022/01/05 00:44:55;;;;;;;25.17;14.02;;;;;;;8.81;nan;99586.69;5050589;28;20112;-72
2022/01/05 00:47:21;;;;;;;26.30;13.43;;;;;;;8.77;nan;99580.31;5050656;28;20387;-72
2022/01/05 00:49:46;;;;;;;23.98;14.68;;;;;;;8.82;nan;99596.16;5050021;28;20037;-72
2022/01/05 00:52:13;;;;;;;23.27;13.55;;;;;;;8.78;nan;99587.16;5049889;28;20441;-72
2022/01/05 00:54:38;;;;;;;27.08;15.05;;;;;;;8.74;nan;99578.97;5050201;28;20048;-72
2022/01/05 00:57:04;;;;;;;24.73;14.30;;;;;;;8.83;nan;99600.38;5050793;28;20041;-72
2022/01/05 00:59:30;;;;;;;24.88;13.90;;;;;;;8.81;nan;99595.38;5051192;28;20041;-72
2022/01/05 01:01:55;;;;;;;24.38;14.02;;;;;;;8.71;nan;99588.09;5032342;28;20033;-72
2022/01/05 01:04:20;;;;;;;25.25;13.95;;;;;;;8.81;nan;99597.19;5034143;28;20482;-73
2022/01/05 01:06:46;;;;;;;23.45;13.43;;;;;;;8.78;nan;99597.66;5050955;28;20033;-72
2022/01/05 01:09:12;;;;;;;27.65;13.88;;;;;;;8.77;nan;99585.56;5050397;28;20047;-72
2022/01/05 01:11:38;;;;;;;24.10;13.70;;;;;;;8.77;nan;99585.56;5050006;28;20036;-72
2022/01/05 01:14:03;;;;;;;23.35;13.35;;;;;;;8.77;nan;99580.31;5049974;28;20126;-72
2022/01/05 01:16:29;;;;;;;22.90;13.57;;;;;;;8.64;nan;99558.56;5049863;28;20029;-72
2022/01/05 01:18:54;;;;;;;23.52;13.45;;;;;;;8.73;nan;99562.41;5050110;28;20033;-72
2022/01/05 01:21:20;;;;;;;25.45;13.05;;;;;;;8.79;nan;99573.00;5050866;28;20036;-72
2022/01/05 01:23:55;;;;;;;22.33;13.70;;;;;;;8.80;nan;99574.59;5051262;28;20098;-72
2022/01/05 01:26:20;;;;;;;23.08;12.40;;;;;;;8.81;nan;99584.06;5053574;28;20387;-72
2022/01/05 01:28:46;;;;;;;22.77;12.40;;;;;;;8.77;nan;99580.31;5053454;28;20077;-72
2022/01/05 01:31:11;;;;;;;22.55;12.10;;;;;;;8.77;nan;99582.94;5053289;28;20036;-72
2022/01/05 01:33:37;;;;;;;19.50;11.23;;;;;;;8.78;nan;99576.66;5033864;28;20445;-72
2022/01/05 01:36:03;;;;;;;21.23;11.55;;;;;;;8.85;nan;99579.94;5054512;28;20132;-73
2022/01/05 01:38:28;;;;;;;19.05;11.45;;;;;;;8.81;nan;99571.75;5053807;28;20611;-72
2022/01/05 01:40:54;;;;;;;19.60;11.23;;;;;;;8.85;nan;99578.09;5053668;28;20072;-73
2022/01/05 01:43:19;;;;;;;19.65;11.63;;;;;;;8.82;nan;99562.84;5054151;28;20033;-71
2022/01/05 01:45:44;;;;;;;16.20;10.02;;;;;;;8.83;nan;99569.66;5036337;28;20476;-71
2022/01/05 01:48:10;;;;;;;17.17;10.23;;;;;;;8.83;nan;99563.63;5054484;28;20102;-72
2022/01/05 01:50:35;;;;;;;17.50;10.40;;;;;;;8.77;nan;99541.75;5054002;28;20429;-73
2022/01/05 01:53:01;;;;;;;18.60;10.35;;;;;;;8.81;nan;99540.25;5050082;28;20052;-72
2022/01/05 01:55:26;;;;;;;19.13;9.60;;;;;;;8.69;nan;99521.09;5035201;28;20478;-73
2022/01/05 01:57:52;;;;;;;17.52;10.40;;;;;;;8.88;nan;99550.59;5053809;28;20463;-72
2022/01/05 02:00:18;;;;;;;17.08;9.43;;;;;;;8.86;nan;99544.78;5054208;28;20056;-72
2022/01/05 02:02:45;;;;;;;15.52;9.15;;;;;;;8.91;nan;99544.88;5054004;28;20037;-73
2022/01/05 02:05:10;;;;;;;15.85;9.18;;;;;;;8.90;nan;99543.28;5035922;28;20028;-72
2022/01/05 02:07:36;;;;;;;16.42;9.20;;;;;;;8.92;nan;99538.59;5054167;28;20025;-71
2022/01/05 02:10:05;;;;;;;17.77;9.98;;;;;;;8.91;nan;99540.44;5050273;28;20033;-72
2022/01/05 02:12:31;;;;;;;16.70;9.32;;;;;;;8.88;nan;99527.78;5053804;28;20025;-72
2022/01/05 02:14:56;;;;;;;15.80;9.27;;;;;;;8.91;nan;99529.94;5036059;28;20094;-73
2022/01/05 02:17:29;;;;;;;16.55;9.60;;;;;;;8.86;nan;99521.97;5053584;28;20501;-73
2022/01/05 02:19:55;;;;;;;18.30;9.80;;;;;;;8.75;nan;99503.63;5035549;28;20066;-71
2022/01/05 02:22:21;;;;;;;16.95;9.15;;;;;;;8.90;nan;99527.53;5053259;28;20401;-72
2022/01/05 02:24:47;;;;;;;15.40;9.27;;;;;;;8.82;nan;99514.78;5053925;28;20552;-72
2022/01/05 02:27:16;;;;;;;18.25;8.90;;;;;;;8.80;nan;99498.47;5053553;28;20083;-72
2022/01/05 02:29:42;;;;;;;14.38;8.85;;;;;;;8.85;nan;99504.59;5035105;28;20043;-72
2022/01/05 02:32:07;;;;;;;17.30;9.18;;;;;;;8.83;nan;99503.25;5053657;28;20029;-72
2022/01/05 02:34:34;;;;;;;17.42;8.90;;;;;;;8.86;nan;99513.25;5053172;28;20036;-72
2022/01/05 02:36:59;;;;;;;14.93;8.60;;;;;;;8.79;nan;99510.00;5052235;28;20033;-72
2022/01/05 02:39:24;;;;;;;14.27;8.05;;;;;;;8.76;nan;99499.97;5034799;28;20052;-72
2022/01/05 02:41:52;;;;;;;13.38;8.55;;;;;;;8.81;nan;99505.31;5053283;28;20390;-73
2022/01/05 02:44:18;;;;;;;14.68;8.82;;;;;;;8.64;nan;99481.63;5053416;28;20116;-72
2022/01/05 02:46:43;;;;;;;17.88;8.88;;;;;;;8.78;nan;99498.69;5052962;28;20184;-72
2022/01/05 02:49:08;;;;;;;14.13;9.05;;;;;;;8.79;nan;99507.38;5053620;28;20075;-71
2022/01/05 02:51:34;;;;;;;15.07;8.43;;;;;;;8.77;nan;99507.63;5053078;28;20449;-72
2022/01/05 02:53:59;;;;;;;15.23;9.20;;;;;;;8.73;nan;99499.41;5034369;28;20065;-72
2022/01/05 02:56:24;;;;;;;17.70;9.50;;;;;;;8.73;nan;99498.59;5053157;28;20478;-72
2022/01/05 02:58:50;;;;;;;14.93;9.27;;;;;;;8.71;nan;99498.84;5052253;28;20116;-73
2022/01/05 03:01:15;;;;;;;16.38;9.73;;;;;;;8.73;nan;99506.47;5050536;28;20033;-72
2022/01/05 03:03:41;;;;;;;16.38;9.50;;;;;;;8.68;nan;99507.19;5053074;28;20557;-72
2022/01/05 03:06:06;;;;;;;14.18;9.07;;;;;;;8.62;nan;99502.88;5052804;28;20044;-72
2022/01/05 03:08:32;;;;;;;14.90;9.10;;;;;;;8.62;nan;99495.00;5032941;28;20441;-72
2022/01/05 03:10:59;;;;;;;16.08;9.32;;;;;;;8.57;nan;99487.03;5051096;28;20545;-72
2022/01/05 03:13:25;;;;;;;16.70;9.30;;;;;;;8.64;nan;99508.69;5052882;28;20123;-72
2022/01/05 03:15:51;;;;;;;16.65;9.70;;;;;;;8.63;nan;99507.09;5052536;28;20035;-72
2022/01/05 03:18:17;;;;;;;15.82;9.30;;;;;;;8.63;nan;99507.09;5036177;28;20133;-72
2022/01/05 03:20:42;;;;;;;16.02;8.95;;;;;;;8.57;nan;99497.53;5052312;28;20111;-72
2022/01/05 03:23:08;;;;;;;17.25;9.07;;;;;;;8.60;nan;99501.53;5052458;28;20065;-72
2022/01/05 03:25:34;;;;;;;15.48;8.98;;;;;;;8.59;nan;99503.34;5051766;28;20102;-72
2022/01/05 03:27:59;;;;;;;19.20;9.10;;;;;;;8.55;nan;99496.16;5052369;28;20081;-72
2022/01/05 03:30:27;;;;;;;16.90;9.68;;;;;;;8.44;nan;99482.84;5052354;28;20133;-72
2022/01/05 03:33:08;;;;;;;17.33;9.52;;;;;;;8.32;nan;99458.47;5052603;28;20795;-72
2022/01/05 03:35:37;;;;;;;14.45;9.15;;;;;;;8.50;nan;99491.63;5050509;28;20025;-72
2022/01/05 03:38:04;;;;;;;15.27;8.63;;;;;;;8.52;nan;99497.41;5051939;28;20057;-72
2022/01/05 03:40:30;;;;;;;19.40;9.52;;;;;;;8.48;nan;99499.72;5033978;28;20119;-73
2022/01/05 03:42:56;;;;;;;16.25;9.23;;;;;;;8.48;nan;99494.47;5052124;28;20033;-72
2022/01/05 03:45:22;;;;;;;14.57;8.90;;;;;;;8.30;nan;99484.13;5034055;28;20035;-72
2022/01/05 03:47:48;;;;;;;14.65;8.55;;;;;;;8.39;nan;99501.09;5052288;28;20115;-72
2022/01/05 03:50:14;;;;;;;15.45;9.00;;;;;;;8.34;nan;99495.75;5051232;28;20048;-72
2022/01/05 03:52:39;;;;;;;13.75;8.55;;;;;;;8.41;nan;99506.94;5051957;28;20753;-72
2022/01/05 03:55:06;;;;;;;14.02;8.95;;;;;;;8.42;nan;99513.75;5051842;28;20060;-72
2022/01/05 03:57:32;;;;;;;18.90;9.02;;;;;;;8.38;nan;99506.56;5052154;28;20368;-72
2022/01/05 03:59:58;;;;;;;16.83;9.27;;;;;;;8.43;nan;99511.97;5052048;28;20033;-72
2022/01/05 04:02:24;;;;;;;15.70;9.30;;;;;;;8.36;nan;99492.91;5051834;28;20061;-73
2022/01/05 04:04:49;;;;;;;16.33;8.88;;;;;;;8.33;nan;99491.50;5033511;28;20072;-73
2022/01/05 04:07:16;;;;;;;15.98;8.50;;;;;;;8.36;nan;99500.78;5051770;28;20033;-72
2022/01/05 04:09:41;;;;;;;14.27;8.35;;;;;;;8.32;nan;99493.34;5051889;28;20032;-72
2022/01/05 04:12:07;;;;;;;16.20;8.63;;;;;;;8.33;nan;99512.50;5051851;28;20041;-72
2022/01/05 04:14:33;;;;;;;16.15;7.93;;;;;;;8.33;nan;99504.63;5051830;28;20036;-72
2022/01/05 04:16:58;;;;;;;13.68;8.43;;;;;;;8.22;nan;99494.97;5035692;28;20482;-72
2022/01/05 04:19:23;;;;;;;17.63;8.45;;;;;;;8.18;nan;99499.88;5051894;28;20418;-72
2022/01/05 04:21:49;;;;;;;12.73;7.97;;;;;;;8.22;nan;99500.22;5033090;28;20040;-72
2022/01/05 04:24:15;;;;;;;15.20;8.60;;;;;;;8.18;nan;99488.59;5051405;28;20041;-72
2022/01/05 04:26:40;;;;;;;14.88;8.57;;;;;;;8.18;nan;99494.63;5033280;28;20056;-72
2022/01/05 04:29:05;;;;;;;12.82;8.18;;;;;;;8.16;nan;99491.44;5050774;28;20099;-72
2022/01/05 04:31:31;;;;;;;13.27;7.55;;;;;;;8.16;nan;99495.88;5033596;28;20036;-72
2022/01/05 04:33:56;;;;;;;14.32;8.25;;;;;;;8.14;nan;99501.38;5051581;28;20540;-72
2022/01/05 04:36:22;;;;;;;14.13;8.70;;;;;;;8.14;nan;99498.75;5050938;28;20086;-72
2022/01/05 04:38:47;;;;;;;13.00;7.97;;;;;;;8.08;nan;99497.06;5050931;28;20824;-71
2022/01/05 04:41:12;;;;;;;14.43;8.32;;;;;;;8.12;nan;99505.25;5029961;28;20053;-72
2022/01/05 04:43:38;;;;;;;17.85;9.70;;;;;;;8.08;nan;99492.59;5029074;28;20080;-72
2022/01/05 04:46:03;;;;;;;15.18;8.45;;;;;;;7.99;nan;99487.94;5029754;28;20506;-72
2022/01/05 04:48:29;;;;;;;16.17;7.97;;;;;;;8.03;nan;99491.69;5029472;28;20086;-72
2022/01/05 04:50:55;;;;;;;13.73;8.35;;;;;;;8.06;nan;99502.50;5031162;28;20540;-72
2022/01/05 04:53:20;;;;;;;16.27;8.27;;;;;;;8.02;nan;99500.56;5031572;28;20030;-73
2022/01/05 04:55:45;;;;;;;12.40;7.75;;;;;;;7.94;nan;99496.50;5030975;28;20040;-72
2022/01/05 04:58:11;;;;;;;13.52;7.85;;;;;;;7.93;nan;99500.16;5031014;28;20030;-73
2022/01/05 05:00:36;;;;;;;13.73;8.07;;;;;;;7.94;nan;99506.19;5033859;28;20395;-72
2022/01/05 05:03:03;;;;;;;13.07;8.18;;;;;;;7.83;nan;99498.09;5031344;28;20499;-72
2022/01/05 05:05:28;;;;;;;16.95;8.45;;;;;;;7.86;nan;99510.75;5035320;28;20111;-73
2022/01/05 05:07:54;;;;;;;14.48;7.82;;;;;;;7.83;nan;99519.06;5034646;28;20430;-73
2022/01/05 05:10:19;;;;;;;13.88;7.97;;;;;;;7.74;nan;99507.34;5033708;28;20033;-74
2022/01/05 05:12:45;;;;;;;14.45;8.00;;;;;;;7.76;nan;99510.53;5033133;28;20092;-75
2022/01/05 05:15:10;;;;;;;14.50;7.70;;;;;;;7.59;nan;99492.06;5035518;28;20468;-74
2022/01/05 05:17:36;;;;;;;14.20;7.85;;;;;;;7.52;nan;99477.47;5033452;28;20563;-74
2022/01/05 05:20:02;;;;;;;10.93;7.43;;;;;;;7.71;nan;99518.28;5034734;28;20044;-74
2022/01/05 05:22:28;;;;;;;13.15;7.28;;;;;;;7.70;nan;99519.28;5034901;28;20435;-74
2022/01/05 05:24:53;;;;;;;11.57;7.07;;;;;;;7.70;nan;99515.88;5033179;28;20037;-74
2022/01/05 05:27:19;;;;;;;13.45;7.20;;;;;;;7.62;nan;99496.06;5034672;28;20064;-74
2022/01/05 05:29:44;;;;;;;13.18;7.32;;;;;;;7.69;nan;99496.75;5034503;28;20075;-74
2022/01/05 05:32:10;;;;;;;13.65;7.30;;;;;;;7.75;nan;99502.88;5033246;28;20037;-74
2022/01/05 05:34:35;;;;;;;14.50;6.90;;;;;;;7.75;nan;99500.25;5033212;28;20427;-74
2022/01/05 05:37:00;;;;;;;11.93;6.65;;;;;;;7.79;nan;99496.16;5032331;28;20052;-74
2022/01/05 05:39:26;;;;;;;11.07;6.60;;;;;;;7.91;nan;99504.03;5039637;28;20131;-74
2022/01/05 05:41:51;;;;;;;13.45;6.43;;;;;;;7.89;nan;99491.94;5054196;28;20029;-74
2022/01/05 05:44:17;;;;;;;11.77;6.63;;;;;;;7.97;nan;99492.59;5054609;28;20052;-74
2022/01/05 05:46:42;;;;;;;11.43;6.88;;;;;;;7.82;nan;99461.63;5054099;28;20037;-74
2022/01/05 05:49:08;;;;;;;10.90;6.47;;;;;;;8.07;nan;99498.88;5036068;28;20068;-74
2022/01/05 05:51:33;;;;;;;12.25;6.53;;;;;;;7.99;nan;99496.59;5053775;28;20062;-74
2022/01/05 05:53:58;;;;;;;12.85;7.38;;;;;;;8.00;nan;99486.94;5054322;28;20078;-74
2022/01/05 05:56:24;;;;;;;11.02;6.20;;;;;;;8.04;nan;99482.78;5053641;28;20437;-75
2022/01/05 05:58:49;;;;;;;14.27;7.07;;;;;;;8.04;nan;99478.34;5035746;28;20033;-72
2022/01/05 06:01:15;;;;;;;12.52;6.63;;;;;;;8.07;nan;99487.59;5035937;28;20037;-72
2022/01/05 06:03:40;;;;;;;10.18;6.25;;;;;;;8.05;nan;99489.66;5035718;28;20515;-72
2022/01/05 06:06:06;;;;;;;11.20;6.78;;;;;;;7.98;nan;99483.72;5036143;28;20521;-72
2022/01/05 06:08:31;;;;;;;11.05;6.43;;;;;;;7.98;nan;99495.00;5033278;28;20029;-72
2022/01/05 06:10:56;;;;;;;12.63;6.32;;;;;;;7.97;nan;99487.38;5053018;28;20040;-72
2022/01/05 06:13:22;;;;;;;9.68;5.60;;;;;;;7.94;nan;99485.22;5035000;28;20045;-70
2022/01/05 06:15:47;;;;;;;11.32;5.70;;;;;;;7.94;nan;99480.75;5032271;28;20041;-74
2022/01/05 06:18:12;;;;;;;11.65;6.72;;;;;;;7.99;nan;99486.09;5041804;28;20039;-72
2022/01/05 06:20:38;;;;;;;12.43;6.40;;;;;;;7.94;nan;99482.59;5038842;28;20029;-73
2022/01/05 06:23:03;;;;;;;11.27;6.60;;;;;;;7.94;nan;99480.75;5039138;28;20087;-73
2022/01/05 06:25:29;;;;;;;10.13;6.63;;;;;;;7.88;nan;99464.13;5039576;28;20033;-73
2022/01/05 06:27:54;;;;;;;10.82;5.88;;;;;;;7.91;nan;99483.84;5026663;28;20395;-73
2022/01/05 06:30:19;;;;;;;16.67;6.93;;;;;;;7.95;nan;99497.28;5047437;28;20040;-72
2022/01/05 06:32:46;;;;;;;11.43;6.70;;;;;;;7.98;nan;99509.94;5032007;28;20033;-73
2022/01/05 06:35:13;;;;;;;11.13;5.90;;;;;;;7.96;nan;99512.00;5053522;28;20037;-73
2022/01/05 06:37:39;;;;;;;10.63;6.40;;;;;;;7.91;nan;99499.56;5053085;28;20033;-74
2022/01/05 06:40:05;;;;;;;10.65;6.57;;;;;;;7.89;nan;99491.94;5053489;28;20056;-75
2022/01/05 06:42:30;;;;;;;13.13;6.43;;;;;;;7.92;nan;99485.44;5052542;28;20069;-74
2022/01/05 06:44:55;;;;;;;10.18;5.85;;;;;;;7.90;nan;99490.09;5042842;28;20121;-74
2022/01/05 06:47:21;;;;;;;12.88;6.63;;;;;;;7.93;nan;99499.34;5050815;28;20037;-72
2022/01/05 06:49:46;;;;;;;10.38;6.25;;;;;;;7.91;nan;99485.69;5051112;28;20037;-73
2022/01/05 06:52:12;;;;;;;9.07;6.10;;;;;;;7.95;nan;99489.41;5049368;28;20021;-74
2022/01/05 06:54:41;;;;;;;10.02;5.55;;;;;;;7.93;nan;99486.25;5048868;28;20029;-74
2022/01/05 06:57:08;;;;;;;10.30;5.63;;;;;;;8.03;nan;99502.19;5049774;28;20036;-73
2022/01/05 06:59:35;;;;;;;11.27;5.80;;;;;;;8.03;nan;99492.50;5047684;28;20044;-73
2022/01/05 07:02:05;;;;;;;12.73;6.07;;;;;;;8.09;nan;99490.75;5048340;28;20029;-74
2022/01/05 07:04:32;;;;;;;11.00;5.88;;;;;;;8.08;nan;99489.97;5031487;28;20044;-74
2022/01/05 07:06:57;;;;;;;9.10;5.53;;;;;;;8.15;nan;99502.97;5049798;28;20036;-74
2022/01/05 07:09:22;;;;;;;10.80;6.38;;;;;;;8.13;nan;99493.75;5050928;28;20033;-75
2022/01/05 07:11:48;;;;;;;9.75;5.90;;;;;;;8.20;nan;99491.78;5032154;28;20490;-73
2022/01/05 07:14:13;;;;;;;11.88;6.03;;;;;;;8.34;nan;99508.06;5050039;28;20196;-73
2022/01/05 07:16:38;;;;;;;9.32;5.50;;;;;;;8.29;nan;99506.13;5050626;28;20041;-73
2022/01/05 07:19:04;;;;;;;10.32;6.00;;;;;;;8.30;nan;99495.41;5051341;28;20060;-73
2022/01/05 07:21:33;;;;;;;9.57;5.47;;;;;;;8.37;nan;99500.53;5048377;28;20033;-74
2022/01/05 07:23:59;;;;;;;9.52;5.82;;;;;;;8.37;nan;99510.22;5047943;28;20518;-74
2022/01/05 07:26:24;;;;;;;10.05;6.03;;;;;;;8.44;nan;99527.44;5028957;28;20029;-74
2022/01/05 07:28:50;;;;;;;11.13;6.05;;;;;;;8.51;nan;99532.56;5047801;28;20090;-74
2022/01/05 07:31:15;;;;;;;9.77;5.55;;;;;;;8.50;nan;99515.25;5049655;28;20128;-74
2022/01/05 07:33:40;;;;;;;12.18;5.95;;;;;;;8.62;nan;99513.38;5049715;28;20482;-73
2022/01/05 07:36:06;;;;;;;12.57;5.88;;;;;;;8.67;nan;99512.69;5031705;28;20592;-75
2022/01/05 07:38:31;;;;;;;9.88;5.70;;;;;;;8.71;nan;99508.53;5049629;28;20029;-72
2022/01/05 07:40:57;;;;;;;10.55;5.43;;;;;;;8.72;nan;99513.56;5016935;28;20161;-74
2022/01/05 07:43:22;;;;;;;9.27;5.20;;;;;;;8.78;nan;99511.81;5013390;28;20041;-74
2022/01/05 07:45:49;;;;;;;13.02;5.90;;;;;;;8.83;nan;99516.38;5009857;28;20392;-74
2022/01/05 07:48:14;;;;;;;8.77;5.45;;;;;;;8.76;nan;99498.13;5010216;28;20030;-75
2022/01/05 07:50:40;;;;;;;10.68;6.25;;;;;;;8.77;nan;99498.94;5012095;28;20033;-76
2022/01/05 07:53:05;;;;;;;12.52;6.18;;;;;;;8.82;nan;99502.44;5010702;28;20052;-74
2022/01/05 07:55:31;;;;;;;9.15;5.95;;;;;;;8.84;nan;99507.47;5007251;28;20121;-74
2022/01/05 07:57:59;;;;;;;11.45;6.00;;;;;;;8.88;nan;99519.09;5005725;28;20037;-72
2022/01/05 08:00:24;;;;;;;14.77;6.30;;;;;;;8.87;nan;99501.75;5006137;28;20038;-74
2022/01/05 08:02:50;;;;;;;10.02;5.60;;;;;;;8.93;nan;99499.00;5009696;28;20381;-72
2022/01/05 08:05:15;;;;;;;10.05;5.82;;;;;;;8.92;nan;99494.75;5011953;28;20492;-73
2022/01/05 08:07:41;;;;;;;8.48;5.32;;;;;;;8.87;nan;99496.50;5009629;28;20380;-73
2022/01/05 08:10:06;;;;;;;8.82;5.70;;;;;;;8.99;nan;99517.44;5008505;28;20034;-72
2022/01/05 08:12:32;;;;;;;8.50;5.38;;;;;;;9.04;nan;99514.91;5005024;28;20045;-73
2022/01/05 08:14:57;;;;;;;9.02;4.95;;;;;;;9.05;nan;99512.06;5010898;28;20033;-73
2022/01/05 08:17:22;;;;;;;12.18;5.88;;;;;;;9.11;nan;99516.34;5007948;28;20038;-73
2022/01/05 08:19:48;;;;;;;10.45;5.50;;;;;;;9.04;nan;99507.81;5018740;28;20406;-73
2022/01/05 08:22:13;;;;;;;10.75;5.78;;;;;;;9.14;nan;99502.72;5009938;28;20157;-73
2022/01/05 08:24:39;;;;;;;9.05;5.50;;;;;;;9.21;nan;99507.06;5010874;28;20036;-73
2022/01/05 08:27:07;;;;;;;9.55;5.47;;;;;;;9.21;nan;99502.59;5002969;28;20129;-71
2022/01/05 08:29:32;;;;;;;8.00;5.28;;;;;;;9.31;nan;99512.47;5009920;28;20037;-73
2022/01/05 08:32:02;;;;;;;9.00;5.40;;;;;;;9.39;nan;99509.47;5006275;28;20488;-73
2022/01/05 08:34:31;;;;;;;9.52;5.55;;;;;;;9.43;nan;99507.94;5007973;28;20491;-73
2022/01/05 08:36:57;;;;;;;9.10;5.63;;;;;;;9.46;nan;99504.06;5010693;28;20038;-72
2022/01/05 08:39:23;;;;;;;12.30;5.82;;;;;;;9.54;nan;99509.69;5010904;28;20045;-73
2022/01/05 08:41:52;;;;;;;9.20;5.43;;;;;;;9.59;nan;99494.00;5012436;28;20435;-73
2022/01/05 08:44:17;;;;;;;9.43;5.90;;;;;;;9.72;nan;99513.91;5011938;28;20042;-72
2022/01/05 08:46:43;;;;;;;9.75;5.00;;;;;;;9.77;nan;99508.72;5010725;28;20038;-72
2022/01/05 08:49:10;;;;;;;11.23;5.63;;;;;;;9.78;nan;99488.47;5010951;28;20050;-73
2022/01/05 08:51:38;;;;;;;9.50;5.95;;;;;;;9.91;nan;99503.94;5017363;28;20543;-73
2022/01/05 08:54:06;;;;;;;10.30;5.18;;;;;;;9.92;nan;99494.19;5015138;28;20076;-72
2022/01/05 08:56:31;;;;;;;11.00;5.65;;;;;;;10.05;nan;99500.94;5027722;28;20026;-72
2022/01/05 08:58:57;;;;;;;9.18;5.43;;;;;;;10.10;nan;99501.00;5011113;28;20087;-73
2022/01/05 09:01:23;;;;;;;8.13;5.28;;;;;;;10.13;nan;99495.28;5007377;28;20080;-73
2022/01/05 09:03:49;;;;;;;7.55;5.30;;;;;;;10.22;nan;99488.50;5007256;28;20120;-74
2022/01/05 09:06:14;;;;;;;10.15;5.40;;;;;;;10.05;nan;99453.59;5010384;28;20161;-73
2022/01/05 09:08:40;;;;;;;10.02;5.68;;;;;;;10.21;nan;99471.94;5009241;28;20034;-73
2022/01/05 09:11:08;;;;;;;7.03;4.75;;;;;;;10.32;nan;99479.97;4999979;28;20034;-74
2022/01/05 09:13:34;;;;;;;8.65;5.32;;;;;;;10.27;nan;99464.91;5017117;28;20542;-75
2022/01/05 09:15:59;;;;;;;8.68;5.07;;;;;;;10.34;nan;99483.97;5012911;28;20041;-74
2022/01/05 09:18:25;;;;;;;9.77;4.95;;;;;;;10.43;nan;99484.31;5013392;28;20030;-75
2022/01/05 09:20:50;;;;;;;8.50;4.68;;;;;;;10.47;nan;99479.38;5011897;28;20030;-75
2022/01/05 09:23:16;;;;;;;9.02;4.80;;;;;;;10.45;nan;99474.34;5017170;28;20121;-75
2022/01/05 09:25:42;;;;;;;9.23;4.88;;;;;;;10.52;nan;99479.44;5006061;28;20039;-73
2022/01/05 09:28:08;;;;;;;10.13;5.13;;;;;;;10.48;nan;99471.22;5007533;28;20126;-75
2022/01/05 09:30:34;;;;;;;10.07;5.32;;;;;;;10.56;nan;99475.25;5011723;28;20559;-74
2022/01/05 09:33:00;;;;;;;8.82;5.00;;;;;;;10.55;nan;99460.50;5011985;28;20142;-75
2022/01/05 09:35:26;;;;;;;8.40;4.80;;;;;;;10.68;nan;99468.03;5011268;28;20038;-75
2022/01/05 09:43:04;;;;;;;7.60;4.82;;;;;;;10.88;nan;99461.34;5050653;28;20029;-74
2022/01/05 09:45:33;;;;;;;8.30;4.90;;;;;;;10.93;nan;99458.75;5047463;28;20025;-75
2022/01/05 09:47:58;;;;;;;7.63;5.07;;;;;;;10.99;nan;99457.75;5033241;28;20098;-74
2022/01/05 09:50:26;;;;;;;7.20;4.82;;;;;;;10.97;nan;99439.56;5054347;28;20036;-74
2022/01/05 09:52:53;;;;;;;7.63;5.03;;;;;;;11.11;nan;99439.97;5054655;28;20025;-73
2022/01/05 09:55:18;;;;;;;7.10;4.72;;;;;;;11.23;nan;99440.56;5054534;28;20489;-75
2022/01/05 09:57:45;;;;;;;8.38;4.50;;;;;;;11.41;nan;99433.31;5052448;28;20037;-74
2022/01/05 10:00:14;;;;;;;6.53;4.25;;;;;;;11.67;nan;99445.59;5034648;28;20500;-74
2022/01/05 10:02:42;;;;;;;9.27;4.60;;;;;;;11.91;nan;99430.19;5025966;28;20029;-74
2022/01/05 10:05:12;;;;;;;8.23;4.85;;;;;;;12.10;nan;99435.00;5029035;28;20498;-75
2022/01/05 10:07:38;;;;;;;7.43;4.63;;;;;;;12.09;nan;99428.13;5053489;28;20036;-75
2022/01/05 10:10:04;;;;;;;11.35;5.07;;;;;;;12.21;nan;99430.56;5053616;28;20461;-74
2022/01/05 10:12:29;;;;;;;8.05;4.97;;;;;;;11.99;nan;99380.59;5049702;28;20033;-74
2022/01/05 10:14:55;;;;;;;6.45;4.45;;;;;;;12.16;nan;99393.59;5038120;28;20041;-74
2022/01/05 10:17:26;;;;;;;10.02;4.55;;;;;;;12.41;nan;99420.06;5034583;28;20041;-73
2022/01/05 10:19:59;;;;;;;7.68;4.55;;;;;;;12.47;nan;99421.66;5053044;28;20033;-75
2022/01/05 10:22:40;;;;;;;9.77;5.05;;;;;;;12.51;nan;99420.06;5053208;28;20492;-74
2022/01/05 10:25:07;;;;;;;8.85;4.90;;;;;;;12.59;nan;99417.97;5052704;28;20044;-77
2022/01/05 10:27:34;;;;;;;7.45;4.30;;;;;;;12.63;nan;99414.53;5052554;28;20461;-77
2022/01/05 10:30:07;;;;;;;7.28;4.70;;;;;;;12.71;nan;99416.69;5034201;28;20029;-77
2022/01/05 10:32:34;;;;;;;8.05;5.10;;;;;;;12.54;nan;99384.44;5052380;28;20128;-73
2022/01/05 10:35:08;;;;;;;12.70;4.40;;;;;;;12.82;nan;99411.41;5041823;28;20398;-74
2022/01/05 10:37:35;;;;;;;6.90;4.63;;;;;;;12.88;nan;99399.75;5041492;28;20647;-74
2022/01/05 10:40:20;;;;;;;6.57;4.22;;;;;;;12.97;nan;99398.97;5041202;28;20067;-74
2022/01/05 10:42:48;;;;;;;7.32;4.53;;;;;;;13.11;nan;99411.66;5044318;28;20035;-73
2022/01/05 10:45:22;;;;;;;7.88;4.43;;;;;;;13.13;nan;99405.06;5045087;28;20033;-74
2022/01/05 10:48:07;;;;;;;7.03;4.32;;;;;;;13.16;nan;99403.72;5047156;28;20126;-73
2022/01/05 10:50:33;;;;;;;7.57;4.75;;;;;;;13.07;nan;99397.38;5050369;28;20032;-73
2022/01/05 10:52:59;;;;;;;9.15;4.18;;;;;;;13.03;nan;99391.84;5048941;28;20038;-74
2022/01/05 10:55:27;;;;;;;9.35;4.75;;;;;;;13.04;nan;99390.00;5046911;28;20364;-74
2022/01/05 10:58:03;;;;;;;7.90;4.40;;;;;;;13.09;nan;99396.06;5033002;28;20036;-74
2022/01/05 11:00:34;;;;;;;8.88;4.72;;;;;;;13.13;nan;99393.69;5052122;28;20033;-73
2022/01/05 11:03:01;;;;;;;8.38;4.63;;;;;;;13.16;nan;99393.16;5050988;28;20486;-73
2022/01/05 11:05:27;;;;;;;8.77;5.05;;;;;;;13.14;nan;99385.47;5051973;28;20036;-73
2022/01/05 11:08:06;;;;;;;7.60;4.65;;;;;;;13.17;nan;99376.25;5032598;28;20083;-72
2022/01/05 11:10:31;;;;;;;;;;;;;;;13.32;nan;99388.66;5035651;28;20111;-72
2022/01/05 11:12:57;;;;;;;8.35;4.45;;;;;;;13.33;nan;99377.03;5032446;28;20055;-73
2022/01/05 11:15:24;;;;;;;8.50;4.60;;;;;;;13.37;nan;99384.16;5053209;28;20033;-73
2022/01/05 11:18:08;;;;;;;8.27;4.63;;;;;;;13.43;nan;99386.78;5052222;28;20099;-73
2022/01/05 11:20:52;;;;;;;7.30;4.75;;;;;;;13.47;nan;99378.03;5033739;28;20033;-73
2022/01/05 11:23:19;;;;;;;6.75;4.38;;;;;;;13.43;nan;99345.25;5049829;28;20040;-72
2022/01/05 11:25:46;;;;;;;6.72;4.18;;;;;;;13.76;nan;99378.22;5042463;28;20037;-72
2022/01/05 11:28:14;;;;;;;6.53;4.05;;;;;;;13.76;nan;99370.28;5041983;28;20041;-72
2022/01/05 11:30:41;;;;;;;6.35;4.22;;;;;;;13.80;nan;99367.88;5042683;28;20045;-73
2022/01/05 11:33:07;;;;;;;8.73;4.50;;;;;;;13.86;nan;99368.66;5039015;28;20021;-72
2022/01/05 11:35:33;;;;;;;10.85;4.47;;;;;;;13.71;nan;99345.69;5022996;28;20079;-73
2022/01/05 11:37:59;;;;;;;8.75;4.60;;;;;;;13.81;nan;99367.63;5040435;28;20033;-72
2022/01/05 11:40:25;;;;;;;8.18;5.20;;;;;;;13.84;nan;99366.28;5032881;28;20041;-72
2022/01/05 11:42:56;;;;;;;9.50;4.88;;;;;;;13.87;nan;99378.19;5050393;28;20040;-72
2022/01/05 11:45:31;;;;;;;8.95;5.07;;;;;;;13.78;nan;99368.16;5051422;28;20364;-71
2022/01/05 11:48:16;;;;;;;10.27;5.25;;;;;;;13.77;nan;99366.59;5034076;28;20522;-71
2022/01/05 11:50:44;;;;;;;8.80;4.85;;;;;;;13.73;nan;99365.53;5046813;28;20045;-72